Latest Weather Observations for Alva Beach

IDQ60801

Issued at 7:02 am EST Sunday 22 October 2017 (issued every 30 minutes, with the page automatically refreshed every 10 minutes)

About weather observations | Map of weather stations | Latest weather observations for QLD | Other Formats
Station Details ID: 033295 Name: ALVA BEACH Lat: -19.46 Lon: 147.48 Height: 7.5 m
Data from the previous 72 hours. | See also: Recent months at Alva Beach
Date/Time
EST
Temp
°C
App
Temp
°C
Dew
Point
°C
Rel
Hum
%
Delta-T
°C
Wind Press
QNH
hPa
Press
MSL
hPa
Rain since
9am
mm
Dir  Spd
km/h
Gust
km/h
Spd
kts
Gust
kts
22/07:00am 22.0 25.9 20.3 90 1.1 CALM 0 0 0 0 1011.8 1011.8 2.0
22/06:30am 21.7 25.6 20.3 92 0.9 CALM 0 0 0 0 1011.7 1011.7 2.0
22/06:00am 21.4 25.2 20.2 93 0.8 CALM 0 0 0 0 1011.5 1011.5 2.0
22/05:30am 21.2 24.9 20.0 93 0.8 CALM 0 0 0 0 1011.1 1011.1 2.0
22/05:00am 21.2 24.9 20.0 93 0.8 CALM 0 0 0 0 1010.9 1010.9 2.0
22/04:30am 21.3 24.0 20.3 94 0.6 SE 6 7 3 4 1010.8 1010.8 2.0
22/04:00am 21.3 23.8 20.3 94 0.6 SE 7 11 4 6 1010.8 1010.8 2.0
22/03:30am 21.5 24.2 20.3 93 0.8 SE 6 7 3 4 1010.7 1010.7 2.0
22/03:00am 21.6 25.1 20.4 93 0.8 SE 2 6 1 3 1010.5 1010.5 2.0
22/02:30am 21.8 25.0 20.6 93 0.8 SE 4 9 2 5 1011.0 1011.0 2.0
22/02:00am 21.9 24.9 20.9 94 0.7 SE 6 11 3 6 1011.1 1011.1 2.0
22/01:30am 22.0 24.9 21.0 94 0.7 SE 7 11 4 6 1011.4 1011.4 2.0
22/01:00am 22.0 24.8 20.8 93 0.8 ESE 7 11 4 6 1011.6 1011.6 2.0
22/12:30am 22.2 25.3 21.0 93 0.8 ESE 6 9 3 5 1011.7 1011.7 2.0
22/12:00am 22.4 25.3 21.0 92 0.9 ESE 7 11 4 6 1012.4 1012.4 2.0
 
Date/Time
EST
Temp
°C
App
Temp
°C
Dew
Point
°C
Rel
Hum
%
Delta-T
°C
Wind Press
QNH
hPa
Press
MSL
hPa
Rain since
9am
mm
Dir  Spd
km/h
Gust
km/h
Spd
kts
Gust
kts
21/11:30pm 22.7 25.8 21.0 90 1.1 ESE 6 11 3 6 1012.7 1012.7 2.0
21/11:00pm 22.9 25.2 20.6 87 1.5 E 9 17 5 9 1012.9 1012.9 2.0
21/10:30pm 22.4 24.1 20.1 87 1.5 ESE 11 17 6 9 1013.0 1013.0 2.0
21/10:00pm 22.2 25.2 21.2 94 0.7 SE 7 11 4 6 1013.1 1013.1 2.0
21/09:30pm 22.1 25.6 21.1 94 0.7 S 4 9 2 5 1013.1 1013.1 2.0
21/09:00pm 22.1 25.0 21.1 94 0.7 S 7 11 4 6 1013.2 1013.2 1.8
21/08:30pm 22.0 24.9 21.0 94 0.7 S 7 13 4 7 1013.0 1013.0 1.6
21/08:00pm 21.8 24.7 20.6 93 0.8 S 6 11 3 6 1012.7 1012.7 1.6
21/07:30pm 21.9 24.6 20.7 93 0.8 S 7 13 4 7 1012.8 1012.8 1.2
21/07:00pm 21.7 23.9 20.5 93 0.8 S 9 13 5 7 1012.6 1012.6 1.2
21/06:30pm 22.0 23.9 20.6 92 0.9 S 11 19 6 10 1012.2 1012.2 1.2
21/06:00pm 22.8 23.8 19.4 81 2.2 S 13 22 7 12 1012.0 1012.0 0.6
21/05:30pm 24.8 26.9 19.0 70 3.7 ENE 6 9 3 5 1011.4 1011.4 0.0
21/05:00pm 25.4 27.3 18.6 66 4.3 NE 6 11 3 6 1011.2 1011.2 0.0
21/04:30pm 25.5 26.8 18.4 65 4.5 NE 9 11 5 6 1010.9 1010.9 0.0
21/04:00pm 25.6 26.4 19.0 67 4.2 ENE 13 17 7 9 1010.8 1010.8 0.0
21/03:30pm 26.0 27.1 18.9 65 4.5 NE 11 15 6 8 1010.9 1010.9 0.0
21/03:00pm 26.1 26.7 18.5 63 4.8 NE 13 17 7 9 1011.1 1011.1 0.0
21/02:30pm 26.6 26.6 18.2 60 5.3 NE 15 19 8 10 1011.4 1011.4 0.0
21/02:00pm 26.7 26.3 18.0 59 5.5 NE 17 20 9 11 1011.5 1011.5 0.0
21/01:30pm 27.7 28.0 18.7 58 5.8 NE 15 20 8 11 1012.0 1012.0 0.0
21/01:00pm 27.1 28.0 18.4 59 5.5 NE 11 15 6 8 1012.6 1012.6 0.0
21/12:30pm 27.2 27.2 18.2 58 5.7 NE 15 19 8 10 1013.0 1013.0 0.0
21/12:00pm 27.1 27.4 17.8 56 5.9 ENE 13 17 7 9 1013.4 1013.4 0.0
21/11:30am 26.9 27.6 17.9 57 5.7 ENE 11 13 6 7 1013.9 1013.9 0.0
21/11:00am 26.5 27.1 17.6 58 5.6 NE 11 17 6 9 1014.2 1014.2 0.0
21/10:30am 26.3 26.9 17.6 58 5.5 ENE 11 17 6 9 1014.6 1014.6 0.0
21/10:00am 26.6 26.8 17.7 58 5.6 ENE 13 17 7 9 1014.6 1014.6 0.0
21/09:30am 26.5 26.9 18.1 60 5.3 ENE 13 17 7 9 1014.6 1014.6 0.0
21/09:00am 26.7 27.8 18.8 62 5.1 ENE 11 17 6 9 1014.7 1014.7 0.2
21/08:30am 26.3 26.6 17.9 60 5.3 ENE 13 19 7 10 1014.6 1014.6 0.0
21/08:00am 24.8 26.1 18.5 68 4.0 ENE 9 17 5 9 1014.6 1014.6 0.0
21/07:30am 25.2 25.7 18.4 66 4.3 ENE 13 17 7 9 1014.4 1014.4 0.0
21/07:00am 25.2 26.4 18.2 65 4.4 ENE 9 11 5 6 1014.1 1014.1 0.0
21/06:30am 23.9 24.8 18.5 72 3.4 ENE 11 15 6 8 1013.9 1013.9 0.0
21/06:00am 23.7 24.1 19.0 75 3.0 E 15 26 8 14 1013.6 1013.6 0.0
21/05:30am 24.2 24.9 18.8 72 3.4 E 13 17 7 9 1013.3 1013.3 0.0
21/05:00am 24.0 24.9 18.4 71 3.5 E 11 17 6 9 1013.3 1013.3 0.0
21/04:30am 24.2 24.7 18.4 70 3.7 E 13 19 7 10 1013.2 1013.2 0.0
21/04:00am 24.1 24.7 18.7 72 3.4 E 13 17 7 9 1013.2 1013.2 0.0
21/03:30am 24.0 23.7 18.2 70 3.6 ENE 17 22 9 12 1013.1 1013.1 0.0
21/03:00am 24.2 23.4 17.9 68 3.9 E 19 24 10 13 1013.2 1013.2 0.0
21/02:30am 24.4 23.7 18.6 70 3.7 E 20 24 11 13 1013.6 1013.6 0.0
21/02:00am 24.4 24.2 18.6 70 3.7 ENE 17 22 9 12 1013.9 1013.9 0.0
21/01:30am 24.4 24.0 18.1 68 4.0 E 17 20 9 11 1014.3 1014.3 0.0
21/01:00am 24.6 24.1 17.8 66 4.3 E 17 22 9 12 1014.8 1014.8 0.0
21/12:30am 24.6 23.8 18.1 67 4.1 E 19 24 10 13 1015.2 1015.2 0.0
21/12:00am 24.6 23.7 18.3 68 4.0 E 20 26 11 14 1015.5 1015.5 0.0
 
Date/Time
EST
Temp
°C
App
Temp
°C
Dew
Point
°C
Rel
Hum
%
Delta-T
°C
Wind Press
QNH
hPa
Press
MSL
hPa
Rain since
9am
mm
Dir  Spd
km/h
Gust
km/h
Spd
kts
Gust
kts
20/11:30pm 24.7 23.9 18.4 68 4.0 E 20 26 11 14 1015.8 1015.8 0.0
20/11:00pm 24.6 23.7 18.1 67 4.1 E 20 28 11 15 1015.9 1015.9 0.0
20/10:30pm 24.7 23.6 18.6 69 3.9 E 22 28 12 15 1016.0 1016.0 0.0
20/10:00pm 24.7 23.2 18.6 69 3.9 E 24 33 13 18 1015.8 1015.8 0.0
20/09:30pm 24.9 23.5 18.8 69 3.9 E 24 35 13 19 1015.7 1015.7 0.0
20/09:00pm 25.0 23.3 18.9 69 3.9 E 26 35 14 19 1015.5 1015.5 0.0
20/08:30pm 25.1 23.5 18.3 66 4.3 E 24 35 13 19 1015.3 1015.3 0.0
20/08:00pm 24.8 23.1 18.0 66 4.3 E 24 35 13 19 1015.2 1015.2 0.0
20/07:30pm 25.0 23.3 18.9 69 3.9 E 26 33 14 18 1015.1 1015.1 0.0
20/07:00pm 25.0 23.7 19.1 70 3.8 E 24 33 13 18 1015.2 1015.2 0.0
20/06:30pm 25.1 24.1 19.7 72 3.5 E 24 32 13 17 1015.0 1015.0 0.0
20/06:00pm 24.9 24.0 19.1 70 3.7 E 22 33 12 18 1014.7 1014.7 0.0
20/05:30pm 25.2 23.6 18.4 66 4.3 E 24 35 13 19 1014.7 1014.7 0.0
20/05:00pm 25.1 24.2 19.0 69 3.9 E 22 33 12 18 1014.7 1014.7 0.0
20/04:30pm 25.4 25.0 20.2 73 3.4 E 22 32 12 17 1014.5 1014.5 0.0
20/04:00pm 25.5 24.1 18.9 67 4.2 E 24 33 13 18 1014.5 1014.5 0.0
20/03:30pm 26.0 24.6 18.9 65 4.5 E 24 32 13 17 1014.5 1014.5 0.0
20/03:00pm 26.0 24.9 18.7 64 4.7 E 22 32 12 17 1014.7 1014.7 0.0
20/02:30pm 26.3 25.2 19.4 66 4.5 E 24 32 13 17 1015.1 1015.1 0.0
20/02:00pm 26.4 25.0 18.8 63 4.9 E 24 33 13 18 1015.5 1015.5 0.0
20/01:30pm 26.5 25.2 19.1 64 4.8 E 24 37 13 20 1015.8 1015.8 0.0
20/01:00pm 26.1 25.1 18.8 64 4.7 E 22 30 12 16 1016.3 1016.3 0.0
20/12:30pm 26.6 25.2 18.7 62 5.0 E 24 33 13 18 1016.5 1016.5 0.0
20/12:00pm 26.4 25.0 18.8 63 4.9 E 24 33 13 18 1016.5 1016.5 0.0
20/11:30am 27.0 26.4 18.8 60 5.3 E 20 30 11 16 1017.2 1017.2 0.0
20/11:00am 26.5 24.9 18.4 61 5.1 E 24 33 13 18 1017.4 1017.4 0.0
20/10:30am 27.8 29.0 20.6 65 4.7 ESE 15 26 8 14 1017.6 1017.6 0.0
20/10:00am 26.5 27.3 20.6 70 3.9 ESE 17 28 9 15 1017.9 1017.9 0.0
20/09:30am 25.8 26.4 19.4 67 4.1 ESE 15 26 8 14 1017.9 1017.9 0.0
20/09:00am 26.5 27.1 20.3 68 4.0 ESE 17 28 9 15 1017.9 1017.9 9.0
20/08:30am 24.7 25.2 19.3 72 3.5 SE 15 26 8 14 1017.5 1017.5 9.0
20/08:00am 24.8 26.1 20.1 75 3.0 SE 13 24 7 13 1017.5 1017.5 9.0
20/07:30am 23.5 25.2 19.4 78 2.6 S 9 13 5 7 1017.2 1017.2 9.0
20/07:00am 24.6 23.6 18.8 70 3.7 ESE 22 33 12 18 1016.6 1016.6 9.0
20/06:30am 24.3 23.7 18.9 72 3.4 ESE 20 35 11 19 1016.5 1016.5 9.0
20/06:00am 24.2 23.2 19.7 76 2.9 ESE 24 41 13 22 1016.1 1016.1 9.0
20/05:30am 24.1 23.4 19.6 76 2.9 ESE 22 33 12 18 1015.8 1015.8 9.0
20/05:00am 23.9 22.4 19.4 76 2.9 ESE 26 35 14 19 1015.6 1015.6 9.0
20/04:30am 24.1 22.4 19.8 77 2.8 ESE 28 39 15 21 1015.1 1015.1 9.0
20/04:00am 24.0 23.3 20.3 80 2.4 ESE 24 35 13 19 1015.1 1015.1 9.0
20/03:30am 24.2 22.3 20.1 78 2.7 ESE 30 41 16 22 1015.1 1015.1 9.0
20/03:00am 24.4 22.2 20.3 78 2.7 ESE 32 44 17 24 1015.0 1015.0 9.0
20/02:30am 24.5 23.3 20.8 80 2.4 E 28 43 15 23 1015.6 1015.6 9.0
20/02:00am 24.4 22.8 20.7 80 2.4 ESE 30 39 16 21 1015.7 1015.7 9.0
20/01:30am 24.4 23.8 21.3 83 2.0 ESE 26 37 14 20 1015.5 1015.5 9.0
20/01:26am 24.4 23.3 21.1 82 2.2 ESE 28 46 15 25 1015.5 1015.5 9.0
20/01:00am 24.5 22.9 21.6 84 1.9 E 32 46 17 25 1015.7 1015.7 9.0
20/12:30am 24.1 22.9 22.2 89 1.3 ESE 32 44 17 24 1016.2 1016.2 9.0
20/12:00am 23.9 22.2 21.4 86 1.6 E 32 48 17 26 1016.6 1016.6 9.0
 
Date/Time
EST
Temp
°C
App
Temp
°C
Dew
Point
°C
Rel
Hum
%
Delta-T
°C
Wind Press
QNH
hPa
Press
MSL
hPa
Rain since
9am
mm
Dir  Spd
km/h
Gust
km/h
Spd
kts
Gust
kts
19/11:45pm 23.9 22.7 22.2 90 1.1 E 32 50 17 27 1016.7 1016.7 8.8
19/11:30pm 24.1 22.7 22.2 89 1.3 E 33 44 18 24 1016.8 1016.8 8.8
19/11:00pm 24.1 20.5 20.2 79 2.5 E 39 63 21 34 1017.1 1017.1 8.0
19/10:57pm 25.1 23.0 21.6 81 2.3 E 35 56 19 30 1017.1 1017.1 8.0
19/10:30pm 24.8 23.3 22.7 88 1.4 E 35 48 19 26 1017.1 1017.1 8.0
19/10:00pm 24.1 23.2 22.9 93 0.8 E 32 46 17 25 1017.2 1017.2 7.4
19/09:40pm 24.3 22.9 22.0 87 1.5 E 32 50 17 27 1017.1 1017.1 4.2
19/09:30pm 24.4 23.8 22.7 90 1.1 ESE 30 41 16 22 1017.0 1017.0 4.2
19/09:00pm 24.1 23.0 22.5 91 1.1 E 32 44 17 24 1016.8 1016.8 4.2
19/08:30pm 23.9 22.1 22.3 91 1.1 E 35 48 19 26 1016.4 1016.4 4.2
19/08:00pm 23.7 22.0 22.5 93 0.8 E 35 50 19 27 1016.3 1016.3 4.2
19/07:49pm 23.6 21.8 22.2 92 0.9 E 35 54 19 29 1016.1 1016.1 3.6
19/07:30pm 24.2 23.9 22.5 90 1.1 E 28 43 15 23 1016.1 1016.1 3.0
19/07:00pm 24.7 24.2 22.8 89 1.3 E 30 44 16 24 1015.9 1015.9 2.8
19/06:30pm 24.1 23.4 22.5 91 1.1 E 30 44 16 24 1015.6 1015.6 2.8
19/06:00pm 24.7 24.4 22.6 88 1.4 ESE 28 39 15 21 1015.1 1015.1 2.2
19/05:30pm 24.9 24.5 23.0 89 1.3 E 30 43 16 23 1014.7 1014.7 2.2
19/05:00pm 24.7 24.5 22.8 89 1.3 ESE 28 43 15 23 1014.4 1014.4 2.2
19/04:30pm 25.3 24.8 22.8 86 1.7 ESE 30 43 16 23 1014.2 1014.2 1.8
19/04:00pm 25.3 23.8 22.8 86 1.7 E 35 50 19 27 1014.1 1014.1 1.8
19/03:30pm 24.7 23.6 22.9 90 1.2 E 33 46 18 25 1014.1 1014.1 1.8
19/03:12pm 25.0 25.1 23.2 90 1.2 E 28 48 15 26 1014.1 1014.1 1.6
19/03:00pm 24.8 24.8 23.0 90 1.2 E 28 37 15 20 1014.0 1014.0 1.6
19/02:53pm 24.5 23.6 22.8 90 1.1 E 32 50 17 27 1014.1 1014.1 1.6
19/02:30pm 26.7 25.9 22.3 77 3.0 E 30 43 16 23 1014.2 1014.2 0.0
19/02:00pm 26.3 25.8 22.2 78 2.8 E 28 43 15 23 1014.7 1014.7 0.0
19/01:30pm 26.6 25.7 22.2 77 3.0 E 30 39 16 21 1014.7 1014.7 0.0
19/01:00pm 26.4 24.8 21.6 75 3.2 E 32 44 17 24 1014.9 1014.9 0.0
19/12:30pm 26.3 24.7 21.9 77 2.9 E 33 48 18 26 1015.1 1015.1 0.0
19/12:00pm 26.8 25.3 22.0 75 3.2 E 33 46 18 25 1015.2 1015.2 0.0
19/11:30am 26.2 24.7 21.8 77 2.9 E 32 43 17 23 1015.5 1015.5 0.0
19/11:00am 26.1 24.6 21.7 77 2.9 E 32 43 17 23 1015.6 1015.6 0.0
19/10:30am 26.5 25.0 21.7 75 3.2 E 32 46 17 25 1015.1 1015.1 0.0
19/10:00am 25.8 24.5 22.5 82 2.2 E 33 44 18 24 1015.4 1015.4 0.0
19/09:30am 25.8 24.5 22.5 82 2.2 E 33 52 18 28 1015.5 1015.5 0.0
19/09:00am 25.7 24.6 22.8 84 2.0 E 33 46 18 25 1015.4 1015.4 4.6
19/08:30am 25.7 24.2 22.8 84 2.0 E 35 50 19 27 1015.2 1015.2 4.6
19/08:00am 25.5 24.0 22.8 85 1.8 E 35 50 19 27 1014.7 1014.7 4.6
19/07:30am 25.7 24.3 23.0 85 1.8 E 35 50 19 27 1014.2 1014.2 4.6

Other Formats:

Comma delimited format used in spreadsheet applications
http://www.bom.gov.au/fwo/IDQ60801/IDQ60801.95296.axf

JavaScript Object Notation format (JSON) in row-major order
http://www.bom.gov.au/fwo/IDQ60801/IDQ60801.95296.json